sensor_id;sensor_type;location;lat;lon;timestamp;P1;durP1;ratioP1;P2;durP2;ratioP2
12218;SDS011;6172;42.646;23.344;2023-03-25T00:00:14;20.53;;;11.13;;
12218;SDS011;6172;42.646;23.344;2023-03-25T00:02:46;18.80;;;10.63;;
12218;SDS011;6172;42.646;23.344;2023-03-25T00:05:19;19.97;;;10.30;;
12218;SDS011;6172;42.646;23.344;2023-03-25T00:07:50;13.10;;;10.20;;
12218;SDS011;6172;42.646;23.344;2023-03-25T00:10:18;16.60;;;10.07;;
12218;SDS011;6172;42.646;23.344;2023-03-25T00:12:49;17.27;;;9.53;;
12218;SDS011;6172;42.646;23.344;2023-03-25T00:15:17;14.97;;;9.27;;
12218;SDS011;6172;42.646;23.344;2023-03-25T00:17:47;18.07;;;10.00;;
12218;SDS011;6172;42.646;23.344;2023-03-25T00:20:14;17.63;;;10.27;;
12218;SDS011;6172;42.646;23.344;2023-03-25T00:22:42;16.77;;;9.53;;
12218;SDS011;6172;42.646;23.344;2023-03-25T00:25:12;16.83;;;9.73;;
12218;SDS011;6172;42.646;23.344;2023-03-25T00:27:43;19.30;;;9.97;;
12218;SDS011;6172;42.646;23.344;2023-03-25T00:30:10;13.93;;;9.00;;
12218;SDS011;6172;42.646;23.344;2023-03-25T00:32:38;15.87;;;8.87;;
12218;SDS011;6172;42.646;23.344;2023-03-25T00:35:06;15.53;;;9.10;;
12218;SDS011;6172;42.646;23.344;2023-03-25T00:37:33;15.57;;;9.30;;
12218;SDS011;6172;42.646;23.344;2023-03-25T00:40:00;13.07;;;9.37;;
12218;SDS011;6172;42.646;23.344;2023-03-25T00:42:29;13.73;;;9.00;;
12218;SDS011;6172;42.646;23.344;2023-03-25T00:44:59;19.27;;;10.23;;
12218;SDS011;6172;42.646;23.344;2023-03-25T00:47:26;18.00;;;10.30;;
12218;SDS011;6172;42.646;23.344;2023-03-25T00:49:53;16.60;;;10.10;;
12218;SDS011;6172;42.646;23.344;2023-03-25T00:52:20;15.50;;;9.97;;
12218;SDS011;6172;42.646;23.344;2023-03-25T00:54:47;18.03;;;9.63;;
12218;SDS011;6172;42.646;23.344;2023-03-25T00:57:14;13.10;;;9.53;;
12218;SDS011;6172;42.646;23.344;2023-03-25T00:59:43;19.77;;;9.73;;
12218;SDS011;6172;42.646;23.344;2023-03-25T01:02:10;20.00;;;9.50;;
12218;SDS011;6172;42.646;23.344;2023-03-25T01:04:38;20.53;;;10.13;;
12218;SDS011;6172;42.646;23.344;2023-03-25T01:07:05;17.20;;;9.53;;
12218;SDS011;6172;42.646;23.344;2023-03-25T01:09:32;17.40;;;9.60;;
12218;SDS011;6172;42.646;23.344;2023-03-25T01:11:59;15.90;;;9.47;;
12218;SDS011;6172;42.646;23.344;2023-03-25T01:14:26;14.93;;;9.07;;
12218;SDS011;6172;42.646;23.344;2023-03-25T01:16:54;15.90;;;9.07;;
12218;SDS011;6172;42.646;23.344;2023-03-25T01:19:23;18.57;;;9.17;;
12218;SDS011;6172;42.646;23.344;2023-03-25T01:21:50;15.37;;;9.63;;
12218;SDS011;6172;42.646;23.344;2023-03-25T01:24:17;13.03;;;8.97;;
12218;SDS011;6172;42.646;23.344;2023-03-25T01:26:45;13.43;;;9.70;;
12218;SDS011;6172;42.646;23.344;2023-03-25T01:29:12;21.60;;;10.07;;
12218;SDS011;6172;42.646;23.344;2023-03-25T01:31:40;17.13;;;9.70;;
12218;SDS011;6172;42.646;23.344;2023-03-25T01:34:09;16.00;;;9.90;;
12218;SDS011;6172;42.646;23.344;2023-03-25T01:36:36;18.63;;;10.17;;
12218;SDS011;6172;42.646;23.344;2023-03-25T01:39:06;13.50;;;8.90;;
12218;SDS011;6172;42.646;23.344;2023-03-25T01:41:35;13.30;;;8.93;;
12218;SDS011;6172;42.646;23.344;2023-03-25T01:44:05;12.00;;;9.23;;
12218;SDS011;6172;42.646;23.344;2023-03-25T01:46:36;13.20;;;9.10;;
12218;SDS011;6172;42.646;23.344;2023-03-25T01:49:05;12.97;;;8.90;;
12218;SDS011;6172;42.646;23.344;2023-03-25T01:51:37;14.37;;;9.17;;
12218;SDS011;6172;42.646;23.344;2023-03-25T01:54:09;13.17;;;8.70;;
12218;SDS011;6172;42.646;23.344;2023-03-25T01:56:42;9.10;;;7.97;;
12218;SDS011;6172;42.646;23.344;2023-03-25T01:59:12;12.07;;;8.53;;
12218;SDS011;6172;42.646;23.344;2023-03-25T02:01:42;12.97;;;8.70;;
12218;SDS011;6172;42.646;23.344;2023-03-25T02:04:11;14.13;;;9.30;;
12218;SDS011;6172;42.646;23.344;2023-03-25T02:06:49;15.00;;;9.07;;
12218;SDS011;6172;42.646;23.344;2023-03-25T02:09:19;14.33;;;8.63;;
12218;SDS011;6172;42.646;23.344;2023-03-25T02:11:49;14.30;;;8.63;;
12218;SDS011;6172;42.646;23.344;2023-03-25T02:14:19;18.13;;;9.77;;
12218;SDS011;6172;42.646;23.344;2023-03-25T02:16:51;13.83;;;9.30;;
12218;SDS011;6172;42.646;23.344;2023-03-25T02:19:35;16.93;;;9.60;;
12218;SDS011;6172;42.646;23.344;2023-03-25T02:22:36;16.57;;;9.60;;
12218;SDS011;6172;42.646;23.344;2023-03-25T02:28:19;14.33;;;9.40;;
12218;SDS011;6172;42.646;23.344;2023-03-25T02:34:05;17.17;;;9.00;;
12218;SDS011;6172;42.646;23.344;2023-03-25T02:39:47;19.17;;;9.23;;
12218;SDS011;6172;42.646;23.344;2023-03-25T02:42:19;17.27;;;9.50;;
12218;SDS011;6172;42.646;23.344;2023-03-25T02:44:52;18.60;;;9.97;;
12218;SDS011;6172;42.646;23.344;2023-03-25T02:47:25;17.73;;;9.17;;
12218;SDS011;6172;42.646;23.344;2023-03-25T02:49:57;16.57;;;9.33;;
12218;SDS011;6172;42.646;23.344;2023-03-25T02:52:32;19.03;;;9.70;;
12218;SDS011;6172;42.646;23.344;2023-03-25T02:55:04;16.57;;;9.80;;
12218;SDS011;6172;42.646;23.344;2023-03-25T02:57:35;16.73;;;9.90;;
12218;SDS011;6172;42.646;23.344;2023-03-25T03:00:06;15.23;;;9.07;;
12218;SDS011;6172;42.646;23.344;2023-03-25T03:02:39;17.23;;;9.60;;
12218;SDS011;6172;42.646;23.344;2023-03-25T03:05:22;16.90;;;8.80;;
12218;SDS011;6172;42.646;23.344;2023-03-25T03:07:52;13.07;;;9.03;;
12218;SDS011;6172;42.646;23.344;2023-03-25T03:10:31;19.50;;;9.67;;
12218;SDS011;6172;42.646;23.344;2023-03-25T03:13:09;20.30;;;9.47;;
12218;SDS011;6172;42.646;23.344;2023-03-25T03:15:48;18.97;;;8.83;;
12218;SDS011;6172;42.646;23.344;2023-03-25T03:18:22;20.83;;;9.33;;
12218;SDS011;6172;42.646;23.344;2023-03-25T03:21:02;26.03;;;9.83;;
12218;SDS011;6172;42.646;23.344;2023-03-25T03:23:40;19.33;;;10.03;;
12218;SDS011;6172;42.646;23.344;2023-03-25T03:26:22;22.33;;;9.37;;
12218;SDS011;6172;42.646;23.344;2023-03-25T03:28:56;18.40;;;9.83;;
12218;SDS011;6172;42.646;23.344;2023-03-25T03:31:27;16.30;;;9.17;;
12218;SDS011;6172;42.646;23.344;2023-03-25T03:34:02;19.40;;;10.10;;
12218;SDS011;6172;42.646;23.344;2023-03-25T03:36:36;17.93;;;9.93;;
12218;SDS011;6172;42.646;23.344;2023-03-25T03:39:09;21.87;;;9.83;;
12218;SDS011;6172;42.646;23.344;2023-03-25T03:41:45;19.50;;;9.63;;
12218;SDS011;6172;42.646;23.344;2023-03-25T03:44:18;21.07;;;9.97;;
12218;SDS011;6172;42.646;23.344;2023-03-25T03:46:49;21.40;;;10.87;;
12218;SDS011;6172;42.646;23.344;2023-03-25T03:49:20;20.23;;;10.50;;
12218;SDS011;6172;42.646;23.344;2023-03-25T03:51:54;16.97;;;10.27;;
12218;SDS011;6172;42.646;23.344;2023-03-25T03:54:25;18.87;;;9.77;;
12218;SDS011;6172;42.646;23.344;2023-03-25T03:56:58;13.53;;;9.00;;
12218;SDS011;6172;42.646;23.344;2023-03-25T03:59:29;17.53;;;10.40;;
12218;SDS011;6172;42.646;23.344;2023-03-25T04:02:06;20.43;;;9.50;;
12218;SDS011;6172;42.646;23.344;2023-03-25T04:04:40;13.83;;;9.03;;
12218;SDS011;6172;42.646;23.344;2023-03-25T04:07:10;13.33;;;9.20;;
12218;SDS011;6172;42.646;23.344;2023-03-25T04:09:41;12.83;;;8.77;;
12218;SDS011;6172;42.646;23.344;2023-03-25T04:12:22;15.50;;;8.93;;
12218;SDS011;6172;42.646;23.344;2023-03-25T04:14:52;16.77;;;9.10;;
12218;SDS011;6172;42.646;23.344;2023-03-25T04:17:19;16.37;;;9.63;;
12218;SDS011;6172;42.646;23.344;2023-03-25T04:19:48;14.60;;;10.23;;
12218;SDS011;6172;42.646;23.344;2023-03-25T04:22:18;14.47;;;9.57;;
12218;SDS011;6172;42.646;23.344;2023-03-25T04:24:45;16.10;;;9.67;;
12218;SDS011;6172;42.646;23.344;2023-03-25T04:27:16;14.73;;;9.77;;
12218;SDS011;6172;42.646;23.344;2023-03-25T04:29:45;13.43;;;9.40;;
12218;SDS011;6172;42.646;23.344;2023-03-25T04:32:13;14.00;;;9.77;;
12218;SDS011;6172;42.646;23.344;2023-03-25T04:34:41;17.93;;;10.20;;
12218;SDS011;6172;42.646;23.344;2023-03-25T04:37:08;15.77;;;9.80;;
12218;SDS011;6172;42.646;23.344;2023-03-25T04:39:35;19.93;;;9.87;;
12218;SDS011;6172;42.646;23.344;2023-03-25T04:42:03;19.00;;;9.87;;
12218;SDS011;6172;42.646;23.344;2023-03-25T04:44:31;24.80;;;10.37;;
12218;SDS011;6172;42.646;23.344;2023-03-25T04:47:04;14.83;;;10.33;;
12218;SDS011;6172;42.646;23.344;2023-03-25T04:49:36;19.57;;;10.07;;
12218;SDS011;6172;42.646;23.344;2023-03-25T04:52:03;19.60;;;9.50;;
12218;SDS011;6172;42.646;23.344;2023-03-25T04:54:32;19.60;;;10.60;;
12218;SDS011;6172;42.646;23.344;2023-03-25T04:56:58;22.03;;;9.80;;
12218;SDS011;6172;42.646;23.344;2023-03-25T04:59:26;17.20;;;10.73;;
12218;SDS011;6172;42.646;23.344;2023-03-25T05:01:53;16.23;;;10.00;;
12218;SDS011;6172;42.646;23.344;2023-03-25T05:04:22;28.87;;;10.77;;
12218;SDS011;6172;42.646;23.344;2023-03-25T05:06:49;32.03;;;10.87;;
12218;SDS011;6172;42.646;23.344;2023-03-25T05:09:18;21.87;;;11.03;;
12218;SDS011;6172;42.646;23.344;2023-03-25T05:11:51;17.87;;;9.50;;
12218;SDS011;6172;42.646;23.344;2023-03-25T05:14:20;16.87;;;9.40;;
12218;SDS011;6172;42.646;23.344;2023-03-25T05:16:50;16.67;;;10.50;;
12218;SDS011;6172;42.646;23.344;2023-03-25T05:19:17;20.97;;;10.07;;
12218;SDS011;6172;42.646;23.344;2023-03-25T05:21:46;20.27;;;10.37;;
12218;SDS011;6172;42.646;23.344;2023-03-25T05:24:13;24.57;;;11.20;;
12218;SDS011;6172;42.646;23.344;2023-03-25T05:26:40;19.73;;;10.20;;
12218;SDS011;6172;42.646;23.344;2023-03-25T05:29:09;17.73;;;10.33;;
12218;SDS011;6172;42.646;23.344;2023-03-25T05:31:38;21.10;;;10.90;;
12218;SDS011;6172;42.646;23.344;2023-03-25T05:34:05;21.43;;;10.03;;
12218;SDS011;6172;42.646;23.344;2023-03-25T05:36:33;20.13;;;9.30;;
12218;SDS011;6172;42.646;23.344;2023-03-25T05:39:02;16.27;;;9.17;;
12218;SDS011;6172;42.646;23.344;2023-03-25T05:41:30;10.40;;;7.57;;
12218;SDS011;6172;42.646;23.344;2023-03-25T05:44:02;21.67;;;9.77;;
12218;SDS011;6172;42.646;23.344;2023-03-25T05:46:30;23.80;;;9.83;;
12218;SDS011;6172;42.646;23.344;2023-03-25T05:48:57;10.73;;;7.20;;
12218;SDS011;6172;42.646;23.344;2023-03-25T05:51:27;15.00;;;7.57;;
12218;SDS011;6172;42.646;23.344;2023-03-25T05:53:57;14.00;;;8.52;;
12218;SDS011;6172;42.646;23.344;2023-03-25T05:56:27;14.30;;;7.95;;
12218;SDS011;6172;42.646;23.344;2023-03-25T05:58:55;10.82;;;7.13;;
12218;SDS011;6172;42.646;23.344;2023-03-25T06:01:22;11.00;;;6.57;;
12218;SDS011;6172;42.646;23.344;2023-03-25T06:03:49;8.82;;;6.18;;
12218;SDS011;6172;42.646;23.344;2023-03-25T06:06:16;7.80;;;6.28;;
12218;SDS011;6172;42.646;23.344;2023-03-25T06:08:46;7.85;;;6.10;;
12218;SDS011;6172;42.646;23.344;2023-03-25T06:11:15;8.93;;;6.43;;
12218;SDS011;6172;42.646;23.344;2023-03-25T06:13:44;9.70;;;6.07;;
12218;SDS011;6172;42.646;23.344;2023-03-25T06:16:15;7.60;;;5.60;;
12218;SDS011;6172;42.646;23.344;2023-03-25T06:18:45;6.22;;;5.60;;
12218;SDS011;6172;42.646;23.344;2023-03-25T06:21:20;9.10;;;5.50;;
12218;SDS011;6172;42.646;23.344;2023-03-25T06:23:47;7.18;;;5.75;;
12218;SDS011;6172;42.646;23.344;2023-03-25T06:26:15;7.88;;;6.13;;
12218;SDS011;6172;42.646;23.344;2023-03-25T06:28:43;9.48;;;6.30;;
12218;SDS011;6172;42.646;23.344;2023-03-25T06:31:11;7.88;;;6.32;;
12218;SDS011;6172;42.646;23.344;2023-03-25T06:33:41;8.50;;;6.65;;
12218;SDS011;6172;42.646;23.344;2023-03-25T06:36:08;13.25;;;6.05;;
12218;SDS011;6172;42.646;23.344;2023-03-25T06:38:36;8.23;;;6.60;;
12218;SDS011;6172;42.646;23.344;2023-03-25T06:41:04;8.98;;;5.68;;
12218;SDS011;6172;42.646;23.344;2023-03-25T06:43:32;8.55;;;5.65;;
12218;SDS011;6172;42.646;23.344;2023-03-25T06:46:01;12.35;;;6.72;;
12218;SDS011;6172;42.646;23.344;2023-03-25T06:48:28;8.98;;;6.32;;
12218;SDS011;6172;42.646;23.344;2023-03-25T06:50:56;8.10;;;6.80;;
12218;SDS011;6172;42.646;23.344;2023-03-25T06:53:23;11.32;;;6.93;;
12218;SDS011;6172;42.646;23.344;2023-03-25T06:55:50;10.45;;;7.30;;
12218;SDS011;6172;42.646;23.344;2023-03-25T06:58:17;12.55;;;7.63;;
12218;SDS011;6172;42.646;23.344;2023-03-25T07:00:44;11.65;;;7.18;;
12218;SDS011;6172;42.646;23.344;2023-03-25T07:03:15;13.07;;;6.80;;
12218;SDS011;6172;42.646;23.344;2023-03-25T07:05:44;11.23;;;7.57;;
12218;SDS011;6172;42.646;23.344;2023-03-25T07:08:11;14.02;;;8.57;;
12218;SDS011;6172;42.646;23.344;2023-03-25T07:10:38;16.40;;;7.88;;
12218;SDS011;6172;42.646;23.344;2023-03-25T07:13:07;10.75;;;7.45;;
12218;SDS011;6172;42.646;23.344;2023-03-25T07:15:35;12.65;;;8.02;;
12218;SDS011;6172;42.646;23.344;2023-03-25T07:18:04;13.90;;;9.27;;
12218;SDS011;6172;42.646;23.344;2023-03-25T07:20:35;12.27;;;7.97;;
12218;SDS011;6172;42.646;23.344;2023-03-25T07:23:03;12.40;;;7.60;;
12218;SDS011;6172;42.646;23.344;2023-03-25T07:25:30;11.80;;;7.55;;
12218;SDS011;6172;42.646;23.344;2023-03-25T07:27:57;13.18;;;7.57;;
12218;SDS011;6172;42.646;23.344;2023-03-25T07:30:27;10.40;;;8.40;;
12218;SDS011;6172;42.646;23.344;2023-03-25T07:32:54;13.93;;;8.18;;
12218;SDS011;6172;42.646;23.344;2023-03-25T07:35:21;14.25;;;8.95;;
12218;SDS011;6172;42.646;23.344;2023-03-25T07:37:52;15.77;;;9.93;;
12218;SDS011;6172;42.646;23.344;2023-03-25T07:40:22;17.67;;;10.60;;
12218;SDS011;6172;42.646;23.344;2023-03-25T07:42:51;18.25;;;10.82;;
12218;SDS011;6172;42.646;23.344;2023-03-25T07:45:19;18.15;;;11.05;;
12218;SDS011;6172;42.646;23.344;2023-03-25T07:47:46;14.05;;;10.38;;
12218;SDS011;6172;42.646;23.344;2023-03-25T07:50:15;22.63;;;10.45;;
12218;SDS011;6172;42.646;23.344;2023-03-25T07:52:54;16.40;;;11.00;;
12218;SDS011;6172;42.646;23.344;2023-03-25T07:55:21;16.65;;;10.93;;
12218;SDS011;6172;42.646;23.344;2023-03-25T07:57:48;14.90;;;10.20;;
12218;SDS011;6172;42.646;23.344;2023-03-25T08:00:15;15.77;;;10.05;;
12218;SDS011;6172;42.646;23.344;2023-03-25T08:02:42;14.95;;;9.18;;
12218;SDS011;6172;42.646;23.344;2023-03-25T08:05:09;20.83;;;9.57;;
12218;SDS011;6172;42.646;23.344;2023-03-25T08:07:37;12.45;;;9.07;;
12218;SDS011;6172;42.646;23.344;2023-03-25T08:10:07;11.93;;;9.50;;
12218;SDS011;6172;42.646;23.344;2023-03-25T08:12:34;14.10;;;8.75;;
12218;SDS011;6172;42.646;23.344;2023-03-25T08:15:02;15.30;;;9.45;;
12218;SDS011;6172;42.646;23.344;2023-03-25T08:17:29;11.90;;;9.10;;
12218;SDS011;6172;42.646;23.344;2023-03-25T08:19:56;11.88;;;9.57;;
12218;SDS011;6172;42.646;23.344;2023-03-25T08:22:23;15.57;;;9.73;;
12218;SDS011;6172;42.646;23.344;2023-03-25T08:24:51;13.90;;;9.65;;
12218;SDS011;6172;42.646;23.344;2023-03-25T08:27:19;12.15;;;9.38;;
12218;SDS011;6172;42.646;23.344;2023-03-25T08:29:48;12.50;;;9.98;;
12218;SDS011;6172;42.646;23.344;2023-03-25T08:32:20;19.05;;;10.63;;
12218;SDS011;6172;42.646;23.344;2023-03-25T08:34:48;15.75;;;9.57;;
12218;SDS011;6172;42.646;23.344;2023-03-25T08:37:15;15.10;;;9.43;;
12218;SDS011;6172;42.646;23.344;2023-03-25T08:39:42;17.65;;;9.60;;
12218;SDS011;6172;42.646;23.344;2023-03-25T08:42:11;14.20;;;9.13;;
12218;SDS011;6172;42.646;23.344;2023-03-25T08:44:43;13.82;;;9.23;;
12218;SDS011;6172;42.646;23.344;2023-03-25T08:47:12;14.40;;;8.75;;
12218;SDS011;6172;42.646;23.344;2023-03-25T08:49:39;13.98;;;8.73;;
12218;SDS011;6172;42.646;23.344;2023-03-25T08:52:06;12.75;;;7.45;;
12218;SDS011;6172;42.646;23.344;2023-03-25T08:54:34;13.48;;;8.85;;
12218;SDS011;6172;42.646;23.344;2023-03-25T08:57:04;12.50;;;8.50;;
12218;SDS011;6172;42.646;23.344;2023-03-25T08:59:31;16.45;;;9.35;;
12218;SDS011;6172;42.646;23.344;2023-03-25T09:02:00;16.58;;;9.55;;
12218;SDS011;6172;42.646;23.344;2023-03-25T09:04:27;14.32;;;8.57;;
12218;SDS011;6172;42.646;23.344;2023-03-25T09:06:54;15.45;;;8.90;;
12218;SDS011;6172;42.646;23.344;2023-03-25T09:09:23;15.55;;;8.98;;
12218;SDS011;6172;42.646;23.344;2023-03-25T09:11:50;14.25;;;9.02;;
12218;SDS011;6172;42.646;23.344;2023-03-25T09:14:17;15.48;;;9.10;;
12218;SDS011;6172;42.646;23.344;2023-03-25T09:16:49;13.88;;;8.68;;
12218;SDS011;6172;42.646;23.344;2023-03-25T09:19:18;13.00;;;9.15;;
12218;SDS011;6172;42.646;23.344;2023-03-25T09:21:45;16.80;;;9.00;;
12218;SDS011;6172;42.646;23.344;2023-03-25T09:24:30;15.05;;;8.45;;
12218;SDS011;6172;42.646;23.344;2023-03-25T09:26:58;15.00;;;9.30;;
12218;SDS011;6172;42.646;23.344;2023-03-25T09:29:25;13.48;;;9.57;;
12218;SDS011;6172;42.646;23.344;2023-03-25T09:31:52;13.82;;;9.48;;
12218;SDS011;6172;42.646;23.344;2023-03-25T09:34:24;15.07;;;9.38;;
12218;SDS011;6172;42.646;23.344;2023-03-25T09:36:52;14.68;;;8.65;;
12218;SDS011;6172;42.646;23.344;2023-03-25T09:39:20;15.10;;;8.90;;
12218;SDS011;6172;42.646;23.344;2023-03-25T09:44:51;17.15;;;8.43;;
12218;SDS011;6172;42.646;23.344;2023-03-25T09:47:23;12.55;;;8.65;;
12218;SDS011;6172;42.646;23.344;2023-03-25T09:50:02;10.95;;;8.35;;
12218;SDS011;6172;42.646;23.344;2023-03-25T09:52:43;8.95;;;7.55;;
12218;SDS011;6172;42.646;23.344;2023-03-25T09:55:19;12.55;;;8.10;;
12218;SDS011;6172;42.646;23.344;2023-03-25T09:57:54;13.70;;;8.07;;
12218;SDS011;6172;42.646;23.344;2023-03-25T10:00:26;15.88;;;8.85;;
12218;SDS011;6172;42.646;23.344;2023-03-25T10:02:55;10.50;;;8.18;;
12218;SDS011;6172;42.646;23.344;2023-03-25T10:08:24;11.60;;;7.85;;
12218;SDS011;6172;42.646;23.344;2023-03-25T10:11:02;11.82;;;8.05;;
12218;SDS011;6172;42.646;23.344;2023-03-25T10:13:37;15.05;;;8.20;;
12218;SDS011;6172;42.646;23.344;2023-03-25T10:16:12;11.73;;;8.45;;
12218;SDS011;6172;42.646;23.344;2023-03-25T10:18:51;8.80;;;6.85;;
12218;SDS011;6172;42.646;23.344;2023-03-25T10:21:35;8.27;;;6.60;;
12218;SDS011;6172;42.646;23.344;2023-03-25T10:24:12;6.60;;;5.93;;
12218;SDS011;6172;42.646;23.344;2023-03-25T10:26:52;8.45;;;4.95;;
12218;SDS011;6172;42.646;23.344;2023-03-25T10:29:25;7.10;;;4.35;;
12218;SDS011;6172;42.646;23.344;2023-03-25T10:31:58;8.10;;;4.97;;
12218;SDS011;6172;42.646;23.344;2023-03-25T10:34:30;5.03;;;3.80;;
12218;SDS011;6172;42.646;23.344;2023-03-25T10:37:05;6.60;;;3.60;;
12218;SDS011;6172;42.646;23.344;2023-03-25T10:39:40;3.25;;;2.72;;
12218;SDS011;6172;42.646;23.344;2023-03-25T10:42:13;3.53;;;3.22;;
12218;SDS011;6172;42.646;23.344;2023-03-25T10:44:47;6.57;;;3.05;;
12218;SDS011;6172;42.646;23.344;2023-03-25T10:47:15;5.15;;;3.40;;
12218;SDS011;6172;42.646;23.344;2023-03-25T10:49:45;5.32;;;3.17;;
12218;SDS011;6172;42.646;23.344;2023-03-25T10:52:17;4.30;;;2.88;;
12218;SDS011;6172;42.646;23.344;2023-03-25T10:54:45;2.65;;;2.40;;
12218;SDS011;6172;42.646;23.344;2023-03-25T10:57:17;6.50;;;3.25;;
12218;SDS011;6172;42.646;23.344;2023-03-25T10:59:54;4.38;;;3.13;;
12218;SDS011;6172;42.646;23.344;2023-03-25T11:02:25;7.07;;;3.65;;
12218;SDS011;6172;42.646;23.344;2023-03-25T11:04:56;5.70;;;3.17;;
12218;SDS011;6172;42.646;23.344;2023-03-25T11:07:30;4.97;;;2.95;;
12218;SDS011;6172;42.646;23.344;2023-03-25T11:10:09;6.95;;;3.10;;
12218;SDS011;6172;42.646;23.344;2023-03-25T11:12:44;5.00;;;3.28;;
12218;SDS011;6172;42.646;23.344;2023-03-25T11:15:13;3.58;;;2.78;;
12218;SDS011;6172;42.646;23.344;2023-03-25T11:17:45;4.32;;;3.55;;
12218;SDS011;6172;42.646;23.344;2023-03-25T11:20:17;3.40;;;2.78;;
12218;SDS011;6172;42.646;23.344;2023-03-25T11:22:53;3.50;;;2.90;;
12218;SDS011;6172;42.646;23.344;2023-03-25T11:25:26;10.18;;;3.33;;
12218;SDS011;6172;42.646;23.344;2023-03-25T11:31:06;5.63;;;3.17;;
12218;SDS011;6172;42.646;23.344;2023-03-25T11:33:37;3.38;;;2.72;;
12218;SDS011;6172;42.646;23.344;2023-03-25T11:36:10;7.32;;;3.22;;
12218;SDS011;6172;42.646;23.344;2023-03-25T11:38:49;6.07;;;3.22;;
12218;SDS011;6172;42.646;23.344;2023-03-25T11:41:21;6.38;;;2.80;;
12218;SDS011;6172;42.646;23.344;2023-03-25T11:43:48;4.45;;;2.90;;
12218;SDS011;6172;42.646;23.344;2023-03-25T11:46:16;4.32;;;2.63;;
12218;SDS011;6172;42.646;23.344;2023-03-25T11:48:54;3.15;;;2.90;;
12218;SDS011;6172;42.646;23.344;2023-03-25T11:51:21;4.60;;;2.70;;
12218;SDS011;6172;42.646;23.344;2023-03-25T11:53:55;4.70;;;2.20;;
12218;SDS011;6172;42.646;23.344;2023-03-25T11:56:27;6.18;;;2.83;;
12218;SDS011;6172;42.646;23.344;2023-03-25T11:58:58;2.95;;;2.42;;
12218;SDS011;6172;42.646;23.344;2023-03-25T12:01:27;2.90;;;2.67;;
12218;SDS011;6172;42.646;23.344;2023-03-25T12:04:05;2.95;;;2.50;;
12218;SDS011;6172;42.646;23.344;2023-03-25T12:06:41;2.92;;;2.67;;
12218;SDS011;6172;42.646;23.344;2023-03-25T12:09:20;4.10;;;2.47;;
12218;SDS011;6172;42.646;23.344;2023-03-25T12:11:48;4.18;;;2.10;;
12218;SDS011;6172;42.646;23.344;2023-03-25T12:14:29;3.03;;;2.30;;
12218;SDS011;6172;42.646;23.344;2023-03-25T12:17:10;2.60;;;2.22;;
12218;SDS011;6172;42.646;23.344;2023-03-25T12:19:50;2.55;;;2.33;;
12218;SDS011;6172;42.646;23.344;2023-03-25T12:22:36;2.42;;;1.83;;
12218;SDS011;6172;42.646;23.344;2023-03-25T12:25:25;7.93;;;3.05;;
12218;SDS011;6172;42.646;23.344;2023-03-25T12:28:06;4.32;;;2.58;;
12218;SDS011;6172;42.646;23.344;2023-03-25T12:30:51;6.70;;;2.25;;
12218;SDS011;6172;42.646;23.344;2023-03-25T12:33:32;5.75;;;1.83;;
12218;SDS011;6172;42.646;23.344;2023-03-25T12:36:13;3.50;;;2.00;;
12218;SDS011;6172;42.646;23.344;2023-03-25T12:38:48;3.85;;;1.90;;
12218;SDS011;6172;42.646;23.344;2023-03-25T12:41:27;2.75;;;2.10;;
12218;SDS011;6172;42.646;23.344;2023-03-25T12:44:02;2.22;;;1.85;;
12218;SDS011;6172;42.646;23.344;2023-03-25T12:49:30;2.03;;;1.70;;
12218;SDS011;6172;42.646;23.344;2023-03-25T12:52:10;4.03;;;2.13;;
12218;SDS011;6172;42.646;23.344;2023-03-25T12:54:49;2.05;;;1.88;;
12218;SDS011;6172;42.646;23.344;2023-03-25T12:57:34;2.97;;;1.55;;
12218;SDS011;6172;42.646;23.344;2023-03-25T13:00:19;2.38;;;1.63;;
12218;SDS011;6172;42.646;23.344;2023-03-25T13:03:04;2.50;;;1.73;;
12218;SDS011;6172;42.646;23.344;2023-03-25T13:05:44;4.25;;;2.00;;
12218;SDS011;6172;42.646;23.344;2023-03-25T13:08:17;2.95;;;1.92;;
12218;SDS011;6172;42.646;23.344;2023-03-25T13:10:47;4.10;;;1.90;;
12218;SDS011;6172;42.646;23.344;2023-03-25T13:13:23;3.00;;;1.75;;
12218;SDS011;6172;42.646;23.344;2023-03-25T13:15:57;5.30;;;1.92;;
12218;SDS011;6172;42.646;23.344;2023-03-25T13:18:30;2.58;;;1.77;;
12218;SDS011;6172;42.646;23.344;2023-03-25T13:21:02;2.45;;;1.90;;
12218;SDS011;6172;42.646;23.344;2023-03-25T13:23:34;4.90;;;1.52;;
12218;SDS011;6172;42.646;23.344;2023-03-25T13:26:04;2.15;;;1.77;;
12218;SDS011;6172;42.646;23.344;2023-03-25T13:28:37;2.47;;;1.88;;
12218;SDS011;6172;42.646;23.344;2023-03-25T13:31:11;3.30;;;2.00;;
12218;SDS011;6172;42.646;23.344;2023-03-25T13:33:52;3.25;;;1.60;;
12218;SDS011;6172;42.646;23.344;2023-03-25T13:36:25;6.22;;;2.67;;
12218;SDS011;6172;42.646;23.344;2023-03-25T13:38:56;4.15;;;2.53;;
12218;SDS011;6172;42.646;23.344;2023-03-25T13:41:29;6.10;;;2.38;;
12218;SDS011;6172;42.646;23.344;2023-03-25T13:44:05;14.77;;;2.90;;
12218;SDS011;6172;42.646;23.344;2023-03-25T13:46:37;4.88;;;2.22;;
12218;SDS011;6172;42.646;23.344;2023-03-25T13:49:11;4.35;;;2.50;;
12218;SDS011;6172;42.646;23.344;2023-03-25T13:51:43;3.05;;;2.10;;
12218;SDS011;6172;42.646;23.344;2023-03-25T13:54:12;4.75;;;1.98;;
12218;SDS011;6172;42.646;23.344;2023-03-25T14:00:05;3.70;;;2.40;;
12218;SDS011;6172;42.646;23.344;2023-03-25T14:03:09;4.13;;;2.80;;
12218;SDS011;6172;42.646;23.344;2023-03-25T14:09:43;2.70;;;2.50;;
12218;SDS011;6172;42.646;23.344;2023-03-25T14:12:22;3.33;;;2.40;;
12218;SDS011;6172;42.646;23.344;2023-03-25T14:14:56;3.80;;;2.90;;
12218;SDS011;6172;42.646;23.344;2023-03-25T14:17:30;3.93;;;2.67;;
12218;SDS011;6172;42.646;23.344;2023-03-25T14:20:01;4.23;;;2.40;;
12218;SDS011;6172;42.646;23.344;2023-03-25T14:22:34;2.93;;;2.60;;
12218;SDS011;6172;42.646;23.344;2023-03-25T14:25:11;3.43;;;2.60;;
12218;SDS011;6172;42.646;23.344;2023-03-25T14:27:49;4.23;;;2.90;;
12218;SDS011;6172;42.646;23.344;2023-03-25T14:30:18;4.47;;;3.00;;
12218;SDS011;6172;42.646;23.344;2023-03-25T14:32:48;4.73;;;3.07;;
12218;SDS011;6172;42.646;23.344;2023-03-25T14:38:20;5.43;;;3.60;;
12218;SDS011;6172;42.646;23.344;2023-03-25T14:41:03;5.23;;;3.10;;
12218;SDS011;6172;42.646;23.344;2023-03-25T14:43:31;5.27;;;2.83;;
12218;SDS011;6172;42.646;23.344;2023-03-25T14:46:02;6.97;;;3.40;;
12218;SDS011;6172;42.646;23.344;2023-03-25T14:48:33;3.50;;;2.80;;
12218;SDS011;6172;42.646;23.344;2023-03-25T14:51:13;2.87;;;2.60;;
12218;SDS011;6172;42.646;23.344;2023-03-25T14:53:50;3.93;;;2.90;;
12218;SDS011;6172;42.646;23.344;2023-03-25T14:56:21;2.73;;;2.40;;
12218;SDS011;6172;42.646;23.344;2023-03-25T14:58:51;2.80;;;2.60;;
12218;SDS011;6172;42.646;23.344;2023-03-25T15:01:23;3.30;;;2.50;;
12218;SDS011;6172;42.646;23.344;2023-03-25T15:04:07;4.63;;;2.63;;
12218;SDS011;6172;42.646;23.344;2023-03-25T15:06:39;3.10;;;2.80;;
12218;SDS011;6172;42.646;23.344;2023-03-25T15:09:09;3.87;;;2.80;;
12218;SDS011;6172;42.646;23.344;2023-03-25T15:11:41;4.30;;;3.03;;
12218;SDS011;6172;42.646;23.344;2023-03-25T15:14:11;6.23;;;2.90;;
12218;SDS011;6172;42.646;23.344;2023-03-25T15:16:55;4.10;;;3.10;;
12218;SDS011;6172;42.646;23.344;2023-03-25T15:19:26;3.80;;;2.80;;
12218;SDS011;6172;42.646;23.344;2023-03-25T15:24:54;3.43;;;3.13;;
12218;SDS011;6172;42.646;23.344;2023-03-25T15:27:27;4.13;;;3.30;;
12218;SDS011;6172;42.646;23.344;2023-03-25T15:30:11;9.60;;;4.80;;
12218;SDS011;6172;42.646;23.344;2023-03-25T15:32:56;6.87;;;5.10;;
12218;SDS011;6172;42.646;23.344;2023-03-25T15:35:50;7.63;;;4.80;;
12218;SDS011;6172;42.646;23.344;2023-03-25T15:41:33;5.87;;;3.67;;